sensor_id;sensor_type;location;lat;lon;timestamp;P1;durP1;ratioP1;P2;durP2;ratioP2
12314;SDS011;23886;46.614;14.276;2023-06-26T00:00:21;12.47;;;11.27;;
12314;SDS011;23886;46.614;14.276;2023-06-26T00:02:48;12.27;;;11.27;;
12314;SDS011;23886;46.614;14.276;2023-06-26T00:05:16;12.60;;;11.50;;
12314;SDS011;23886;46.614;14.276;2023-06-26T00:07:43;12.53;;;11.33;;
12314;SDS011;23886;46.614;14.276;2023-06-26T00:10:10;12.70;;;11.50;;
12314;SDS011;23886;46.614;14.276;2023-06-26T00:12:37;12.30;;;11.20;;
12314;SDS011;23886;46.614;14.276;2023-06-26T00:15:05;12.33;;;11.23;;
12314;SDS011;23886;46.614;14.276;2023-06-26T00:17:33;11.93;;;10.93;;
12314;SDS011;23886;46.614;14.276;2023-06-26T00:20:02;12.70;;;11.60;;
12314;SDS011;23886;46.614;14.276;2023-06-26T00:22:31;12.97;;;11.87;;
12314;SDS011;23886;46.614;14.276;2023-06-26T00:24:58;12.67;;;11.67;;
12314;SDS011;23886;46.614;14.276;2023-06-26T00:27:26;12.63;;;11.50;;
12314;SDS011;23886;46.614;14.276;2023-06-26T00:29:53;12.57;;;11.57;;
12314;SDS011;23886;46.614;14.276;2023-06-26T00:32:20;13.13;;;11.93;;
12314;SDS011;23886;46.614;14.276;2023-06-26T00:34:46;12.43;;;11.33;;
12314;SDS011;23886;46.614;14.276;2023-06-26T00:37:13;14.23;;;12.93;;
12314;SDS011;23886;46.614;14.276;2023-06-26T00:39:42;13.20;;;12.00;;
12314;SDS011;23886;46.614;14.276;2023-06-26T00:42:09;12.63;;;11.50;;
12314;SDS011;23886;46.614;14.276;2023-06-26T00:44:36;13.17;;;12.07;;
12314;SDS011;23886;46.614;14.276;2023-06-26T00:47:03;13.07;;;12.07;;
12314;SDS011;23886;46.614;14.276;2023-06-26T00:49:30;13.43;;;12.30;;
12314;SDS011;23886;46.614;14.276;2023-06-26T00:51:57;13.10;;;12.00;;
12314;SDS011;23886;46.614;14.276;2023-06-26T00:54:24;13.50;;;12.27;;
12314;SDS011;23886;46.614;14.276;2023-06-26T00:56:53;13.17;;;12.00;;
12314;SDS011;23886;46.614;14.276;2023-06-26T00:59:20;14.30;;;12.83;;
12314;SDS011;23886;46.614;14.276;2023-06-26T01:01:47;14.03;;;12.47;;
12314;SDS011;23886;46.614;14.276;2023-06-26T01:04:14;13.67;;;12.37;;
12314;SDS011;23886;46.614;14.276;2023-06-26T01:06:43;13.47;;;12.27;;
12314;SDS011;23886;46.614;14.276;2023-06-26T01:09:15;13.57;;;12.43;;
12314;SDS011;23886;46.614;14.276;2023-06-26T01:11:43;14.00;;;12.80;;
12314;SDS011;23886;46.614;14.276;2023-06-26T01:14:12;12.97;;;11.87;;
12314;SDS011;23886;46.614;14.276;2023-06-26T01:16:39;14.13;;;12.83;;
12314;SDS011;23886;46.614;14.276;2023-06-26T01:19:13;14.70;;;13.30;;
12314;SDS011;23886;46.614;14.276;2023-06-26T01:21:50;13.30;;;12.13;;
12314;SDS011;23886;46.614;14.276;2023-06-26T01:24:23;13.30;;;12.10;;
12314;SDS011;23886;46.614;14.276;2023-06-26T01:26:56;13.03;;;11.93;;
12314;SDS011;23886;46.614;14.276;2023-06-26T01:29:25;14.43;;;13.23;;
12314;SDS011;23886;46.614;14.276;2023-06-26T01:31:54;13.57;;;12.27;;
12314;SDS011;23886;46.614;14.276;2023-06-26T01:34:21;13.73;;;12.53;;
12314;SDS011;23886;46.614;14.276;2023-06-26T01:36:48;14.50;;;13.10;;
12314;SDS011;23886;46.614;14.276;2023-06-26T01:39:17;14.03;;;12.83;;
12314;SDS011;23886;46.614;14.276;2023-06-26T01:41:44;13.80;;;12.63;;
12314;SDS011;23886;46.614;14.276;2023-06-26T01:44:16;14.27;;;12.90;;
12314;SDS011;23886;46.614;14.276;2023-06-26T01:46:52;13.77;;;12.60;;
12314;SDS011;23886;46.614;14.276;2023-06-26T01:49:31;14.77;;;13.37;;
12314;SDS011;23886;46.614;14.276;2023-06-26T01:52:07;14.33;;;13.07;;
12314;SDS011;23886;46.614;14.276;2023-06-26T01:54:52;14.93;;;13.63;;
12314;SDS011;23886;46.614;14.276;2023-06-26T01:57:23;15.00;;;13.60;;
12314;SDS011;23886;46.614;14.276;2023-06-26T01:59:53;14.90;;;13.60;;
12314;SDS011;23886;46.614;14.276;2023-06-26T02:02:22;15.30;;;13.90;;
12314;SDS011;23886;46.614;14.276;2023-06-26T02:04:50;14.20;;;12.70;;
12314;SDS011;23886;46.614;14.276;2023-06-26T02:07:17;15.23;;;13.93;;
12314;SDS011;23886;46.614;14.276;2023-06-26T02:09:44;13.80;;;12.60;;
12314;SDS011;23886;46.614;14.276;2023-06-26T02:12:11;14.07;;;12.63;;
12314;SDS011;23886;46.614;14.276;2023-06-26T02:14:39;14.23;;;12.83;;
12314;SDS011;23886;46.614;14.276;2023-06-26T02:17:08;14.37;;;13.00;;
12314;SDS011;23886;46.614;14.276;2023-06-26T02:19:35;14.63;;;13.33;;
12314;SDS011;23886;46.614;14.276;2023-06-26T02:22:01;14.27;;;12.97;;
12314;SDS011;23886;46.614;14.276;2023-06-26T02:24:29;14.07;;;12.87;;
12314;SDS011;23886;46.614;14.276;2023-06-26T02:26:56;13.97;;;12.73;;
12314;SDS011;23886;46.614;14.276;2023-06-26T02:29:23;14.47;;;13.17;;
12314;SDS011;23886;46.614;14.276;2023-06-26T02:31:50;15.67;;;14.17;;
12314;SDS011;23886;46.614;14.276;2023-06-26T02:34:18;13.57;;;12.30;;
12314;SDS011;23886;46.614;14.276;2023-06-26T02:36:45;15.03;;;13.63;;
12314;SDS011;23886;46.614;14.276;2023-06-26T02:39:12;14.80;;;13.60;;
12314;SDS011;23886;46.614;14.276;2023-06-26T02:41:40;14.67;;;13.40;;
12314;SDS011;23886;46.614;14.276;2023-06-26T02:44:08;14.30;;;13.10;;
12314;SDS011;23886;46.614;14.276;2023-06-26T02:46:36;15.40;;;13.67;;
12314;SDS011;23886;46.614;14.276;2023-06-26T02:49:03;15.20;;;13.83;;
12314;SDS011;23886;46.614;14.276;2023-06-26T02:51:33;14.57;;;13.27;;
12314;SDS011;23886;46.614;14.276;2023-06-26T02:54:00;15.87;;;14.57;;
12314;SDS011;23886;46.614;14.276;2023-06-26T02:56:27;15.33;;;13.83;;
12314;SDS011;23886;46.614;14.276;2023-06-26T02:58:54;13.97;;;12.77;;
12314;SDS011;23886;46.614;14.276;2023-06-26T03:01:21;15.33;;;13.93;;
12314;SDS011;23886;46.614;14.276;2023-06-26T03:03:48;15.17;;;13.77;;
12314;SDS011;23886;46.614;14.276;2023-06-26T03:06:15;14.50;;;13.30;;
12314;SDS011;23886;46.614;14.276;2023-06-26T03:08:44;14.97;;;13.67;;
12314;SDS011;23886;46.614;14.276;2023-06-26T03:11:11;14.10;;;12.90;;
12314;SDS011;23886;46.614;14.276;2023-06-26T03:13:38;14.63;;;13.33;;
12314;SDS011;23886;46.614;14.276;2023-06-26T03:16:05;15.33;;;13.93;;
12314;SDS011;23886;46.614;14.276;2023-06-26T03:18:32;14.60;;;13.40;;
12314;SDS011;23886;46.614;14.276;2023-06-26T03:20:59;14.70;;;13.40;;
12314;SDS011;23886;46.614;14.276;2023-06-26T03:23:26;14.40;;;13.10;;
12314;SDS011;23886;46.614;14.276;2023-06-26T03:25:54;15.67;;;14.07;;
12314;SDS011;23886;46.614;14.276;2023-06-26T03:28:21;15.23;;;13.93;;
12314;SDS011;23886;46.614;14.276;2023-06-26T03:30:48;16.47;;;14.97;;
12314;SDS011;23886;46.614;14.276;2023-06-26T03:33:15;15.90;;;14.50;;
12314;SDS011;23886;46.614;14.276;2023-06-26T03:35:42;17.07;;;14.17;;
12314;SDS011;23886;46.614;14.276;2023-06-26T03:38:09;15.47;;;14.10;;
12314;SDS011;23886;46.614;14.276;2023-06-26T03:40:36;15.00;;;13.67;;
12314;SDS011;23886;46.614;14.276;2023-06-26T03:43:04;14.60;;;13.30;;
12314;SDS011;23886;46.614;14.276;2023-06-26T03:45:31;15.97;;;14.43;;
12314;SDS011;23886;46.614;14.276;2023-06-26T03:47:58;14.17;;;12.90;;
12314;SDS011;23886;46.614;14.276;2023-06-26T03:50:25;14.30;;;13.00;;
12314;SDS011;23886;46.614;14.276;2023-06-26T03:52:52;15.27;;;13.80;;
12314;SDS011;23886;46.614;14.276;2023-06-26T03:55:19;15.30;;;13.90;;
12314;SDS011;23886;46.614;14.276;2023-06-26T03:57:48;14.90;;;13.40;;
12314;SDS011;23886;46.614;14.276;2023-06-26T04:00:17;14.90;;;13.53;;
12314;SDS011;23886;46.614;14.276;2023-06-26T04:02:44;14.90;;;13.60;;
12314;SDS011;23886;46.614;14.276;2023-06-26T04:05:11;15.00;;;13.63;;
12314;SDS011;23886;46.614;14.276;2023-06-26T04:07:38;14.20;;;13.00;;
12314;SDS011;23886;46.614;14.276;2023-06-26T04:10:06;15.07;;;13.77;;
12314;SDS011;23886;46.614;14.276;2023-06-26T04:12:33;15.73;;;14.33;;
12314;SDS011;23886;46.614;14.276;2023-06-26T04:15:00;16.20;;;14.70;;
12314;SDS011;23886;46.614;14.276;2023-06-26T04:17:29;15.70;;;14.20;;
12314;SDS011;23886;46.614;14.276;2023-06-26T04:19:56;14.30;;;13.00;;
12314;SDS011;23886;46.614;14.276;2023-06-26T04:22:23;14.60;;;13.37;;
12314;SDS011;23886;46.614;14.276;2023-06-26T04:24:50;15.73;;;14.27;;
12314;SDS011;23886;46.614;14.276;2023-06-26T04:27:17;14.80;;;13.50;;
12314;SDS011;23886;46.614;14.276;2023-06-26T04:29:44;15.17;;;13.80;;
12314;SDS011;23886;46.614;14.276;2023-06-26T04:32:11;14.90;;;13.60;;
12314;SDS011;23886;46.614;14.276;2023-06-26T04:34:39;15.77;;;14.27;;
12314;SDS011;23886;46.614;14.276;2023-06-26T04:37:09;14.90;;;13.60;;
12314;SDS011;23886;46.614;14.276;2023-06-26T04:39:36;15.67;;;14.03;;
12314;SDS011;23886;46.614;14.276;2023-06-26T04:42:04;15.47;;;14.17;;
12314;SDS011;23886;46.614;14.276;2023-06-26T04:44:32;14.83;;;13.63;;
12314;SDS011;23886;46.614;14.276;2023-06-26T04:46:59;15.20;;;13.70;;
12314;SDS011;23886;46.614;14.276;2023-06-26T04:49:26;14.47;;;13.10;;
12314;SDS011;23886;46.614;14.276;2023-06-26T04:51:56;13.90;;;12.70;;
12314;SDS011;23886;46.614;14.276;2023-06-26T04:54:25;14.47;;;13.07;;
12314;SDS011;23886;46.614;14.276;2023-06-26T04:56:52;14.03;;;12.93;;
12314;SDS011;23886;46.614;14.276;2023-06-26T04:59:19;14.70;;;13.27;;
12314;SDS011;23886;46.614;14.276;2023-06-26T05:01:46;13.87;;;12.57;;
12314;SDS011;23886;46.614;14.276;2023-06-26T05:04:14;14.53;;;13.23;;
12314;SDS011;23886;46.614;14.276;2023-06-26T05:06:41;14.17;;;12.87;;
12314;SDS011;23886;46.614;14.276;2023-06-26T05:09:09;13.50;;;12.30;;
12314;SDS011;23886;46.614;14.276;2023-06-26T05:11:37;13.93;;;12.63;;
12314;SDS011;23886;46.614;14.276;2023-06-26T05:14:04;14.60;;;13.40;;
12314;SDS011;23886;46.614;14.276;2023-06-26T05:16:32;13.73;;;12.60;;
12314;SDS011;23886;46.614;14.276;2023-06-26T05:19:00;13.87;;;12.67;;
12314;SDS011;23886;46.614;14.276;2023-06-26T05:21:27;14.10;;;12.80;;
12314;SDS011;23886;46.614;14.276;2023-06-26T05:23:55;13.17;;;12.07;;
12314;SDS011;23886;46.614;14.276;2023-06-26T05:26:25;14.10;;;12.80;;
12314;SDS011;23886;46.614;14.276;2023-06-26T05:28:53;14.20;;;13.00;;
12314;SDS011;23886;46.614;14.276;2023-06-26T05:31:21;13.70;;;12.50;;
12314;SDS011;23886;46.614;14.276;2023-06-26T05:33:48;13.47;;;12.27;;
12314;SDS011;23886;46.614;14.276;2023-06-26T05:36:16;13.37;;;12.10;;
12314;SDS011;23886;46.614;14.276;2023-06-26T05:38:45;14.57;;;13.07;;
12314;SDS011;23886;46.614;14.276;2023-06-26T05:41:13;13.70;;;12.40;;
12314;SDS011;23886;46.614;14.276;2023-06-26T05:43:42;13.53;;;12.33;;
12314;SDS011;23886;46.614;14.276;2023-06-26T05:46:09;12.90;;;11.80;;
12314;SDS011;23886;46.614;14.276;2023-06-26T05:48:36;13.83;;;12.63;;
12314;SDS011;23886;46.614;14.276;2023-06-26T05:51:04;12.87;;;11.77;;
12314;SDS011;23886;46.614;14.276;2023-06-26T05:53:32;12.63;;;11.60;;
12314;SDS011;23886;46.614;14.276;2023-06-26T05:55:59;13.43;;;12.23;;
12314;SDS011;23886;46.614;14.276;2023-06-26T05:58:26;14.50;;;11.80;;
12314;SDS011;23886;46.614;14.276;2023-06-26T06:00:55;13.37;;;12.07;;
12314;SDS011;23886;46.614;14.276;2023-06-26T06:03:22;12.40;;;11.40;;
12314;SDS011;23886;46.614;14.276;2023-06-26T06:05:50;13.20;;;12.00;;
12314;SDS011;23886;46.614;14.276;2023-06-26T06:08:17;12.97;;;11.60;;
12314;SDS011;23886;46.614;14.276;2023-06-26T06:10:44;12.53;;;11.43;;
12314;SDS011;23886;46.614;14.276;2023-06-26T06:13:11;13.07;;;11.83;;
12314;SDS011;23886;46.614;14.276;2023-06-26T06:15:37;24.13;;;21.93;;
12314;SDS011;23886;46.614;14.276;2023-06-26T06:18:06;15.53;;;14.03;;
12314;SDS011;23886;46.614;14.276;2023-06-26T06:20:34;14.33;;;13.03;;
12314;SDS011;23886;46.614;14.276;2023-06-26T06:23:01;13.10;;;11.80;;
12314;SDS011;23886;46.614;14.276;2023-06-26T06:25:28;12.63;;;11.33;;
12314;SDS011;23886;46.614;14.276;2023-06-26T06:27:55;13.07;;;11.97;;
12314;SDS011;23886;46.614;14.276;2023-06-26T06:30:22;13.37;;;12.23;;
12314;SDS011;23886;46.614;14.276;2023-06-26T06:32:49;13.00;;;11.90;;
12314;SDS011;23886;46.614;14.276;2023-06-26T06:35:19;11.83;;;10.73;;
12314;SDS011;23886;46.614;14.276;2023-06-26T06:37:46;12.40;;;11.20;;
12314;SDS011;23886;46.614;14.276;2023-06-26T06:40:14;12.20;;;11.20;;
12314;SDS011;23886;46.614;14.276;2023-06-26T06:42:41;12.20;;;11.10;;
12314;SDS011;23886;46.614;14.276;2023-06-26T06:45:09;12.27;;;11.27;;
12314;SDS011;23886;46.614;14.276;2023-06-26T06:47:36;12.57;;;11.47;;
12314;SDS011;23886;46.614;14.276;2023-06-26T06:50:03;11.70;;;10.70;;
12314;SDS011;23886;46.614;14.276;2023-06-26T06:52:36;12.47;;;11.30;;
12314;SDS011;23886;46.614;14.276;2023-06-26T06:55:03;13.43;;;12.27;;
12314;SDS011;23886;46.614;14.276;2023-06-26T06:57:33;13.00;;;11.70;;
12314;SDS011;23886;46.614;14.276;2023-06-26T07:00:03;11.90;;;10.80;;
12314;SDS011;23886;46.614;14.276;2023-06-26T07:02:33;12.13;;;11.03;;
12314;SDS011;23886;46.614;14.276;2023-06-26T07:05:01;11.63;;;10.73;;
12314;SDS011;23886;46.614;14.276;2023-06-26T07:07:29;12.27;;;11.27;;
12314;SDS011;23886;46.614;14.276;2023-06-26T07:09:59;12.17;;;11.07;;
12314;SDS011;23886;46.614;14.276;2023-06-26T07:12:27;13.47;;;12.07;;
12314;SDS011;23886;46.614;14.276;2023-06-26T07:14:55;12.27;;;11.27;;
12314;SDS011;23886;46.614;14.276;2023-06-26T07:17:22;12.77;;;11.57;;
12314;SDS011;23886;46.614;14.276;2023-06-26T07:19:49;11.90;;;10.90;;
12314;SDS011;23886;46.614;14.276;2023-06-26T07:22:16;12.37;;;11.37;;
12314;SDS011;23886;46.614;14.276;2023-06-26T07:24:45;12.73;;;11.43;;
12314;SDS011;23886;46.614;14.276;2023-06-26T07:27:13;12.63;;;11.53;;
12314;SDS011;23886;46.614;14.276;2023-06-26T07:29:40;11.90;;;10.90;;
12314;SDS011;23886;46.614;14.276;2023-06-26T07:32:07;12.40;;;11.40;;
12314;SDS011;23886;46.614;14.276;2023-06-26T07:34:34;11.40;;;10.40;;
12314;SDS011;23886;46.614;14.276;2023-06-26T07:37:01;11.70;;;10.70;;
12314;SDS011;23886;46.614;14.276;2023-06-26T07:39:28;12.37;;;11.27;;
12314;SDS011;23886;46.614;14.276;2023-06-26T07:41:56;11.40;;;10.50;;
12314;SDS011;23886;46.614;14.276;2023-06-26T07:44:24;11.90;;;10.90;;
12314;SDS011;23886;46.614;14.276;2023-06-26T07:46:51;11.20;;;10.10;;
12314;SDS011;23886;46.614;14.276;2023-06-26T07:49:19;11.30;;;10.30;;
12314;SDS011;23886;46.614;14.276;2023-06-26T07:51:46;10.53;;;9.67;;
12314;SDS011;23886;46.614;14.276;2023-06-26T07:54:13;11.77;;;10.77;;
12314;SDS011;23886;46.614;14.276;2023-06-26T07:56:52;11.33;;;10.17;;
12314;SDS011;23886;46.614;14.276;2023-06-26T07:59:19;11.53;;;10.53;;
12314;SDS011;23886;46.614;14.276;2023-06-26T08:01:49;10.90;;;10.00;;
12314;SDS011;23886;46.614;14.276;2023-06-26T08:04:17;11.07;;;10.17;;
12314;SDS011;23886;46.614;14.276;2023-06-26T08:06:44;11.57;;;10.57;;
12314;SDS011;23886;46.614;14.276;2023-06-26T08:09:11;11.80;;;10.80;;
12314;SDS011;23886;46.614;14.276;2023-06-26T08:11:38;11.57;;;10.57;;
12314;SDS011;23886;46.614;14.276;2023-06-26T08:14:05;11.00;;;10.07;;
12314;SDS011;23886;46.614;14.276;2023-06-26T08:16:32;11.23;;;10.33;;
12314;SDS011;23886;46.614;14.276;2023-06-26T08:19:01;11.20;;;10.10;;
12314;SDS011;23886;46.614;14.276;2023-06-26T08:21:28;10.87;;;9.83;;
12314;SDS011;23886;46.614;14.276;2023-06-26T08:23:55;10.07;;;9.27;;
12314;SDS011;23886;46.614;14.276;2023-06-26T08:26:22;11.10;;;10.20;;
12314;SDS011;23886;46.614;14.276;2023-06-26T08:28:49;10.50;;;9.60;;
12314;SDS011;23886;46.614;14.276;2023-06-26T08:31:16;10.60;;;9.70;;
12314;SDS011;23886;46.614;14.276;2023-06-26T08:33:43;13.50;;;9.80;;
12314;SDS011;23886;46.614;14.276;2023-06-26T08:36:11;11.53;;;10.53;;
12314;SDS011;23886;46.614;14.276;2023-06-26T08:38:38;10.67;;;9.77;;
12314;SDS011;23886;46.614;14.276;2023-06-26T08:41:06;11.10;;;10.17;;
12314;SDS011;23886;46.614;14.276;2023-06-26T08:43:33;10.90;;;9.90;;
12314;SDS011;23886;46.614;14.276;2023-06-26T08:46:00;10.83;;;9.93;;
12314;SDS011;23886;46.614;14.276;2023-06-26T08:48:28;11.03;;;9.90;;
12314;SDS011;23886;46.614;14.276;2023-06-26T08:50:58;10.47;;;9.63;;
12314;SDS011;23886;46.614;14.276;2023-06-26T08:53:36;10.07;;;9.27;;
12314;SDS011;23886;46.614;14.276;2023-06-26T08:56:09;10.77;;;9.80;;
12314;SDS011;23886;46.614;14.276;2023-06-26T08:58:41;10.10;;;9.30;;
12314;SDS011;23886;46.614;14.276;2023-06-26T09:01:08;10.03;;;9.13;;
12314;SDS011;23886;46.614;14.276;2023-06-26T09:03:36;10.93;;;9.93;;
12314;SDS011;23886;46.614;14.276;2023-06-26T09:06:04;10.27;;;9.37;;
12314;SDS011;23886;46.614;14.276;2023-06-26T09:08:31;9.87;;;9.07;;
12314;SDS011;23886;46.614;14.276;2023-06-26T09:10:59;9.70;;;8.90;;
12314;SDS011;23886;46.614;14.276;2023-06-26T09:13:27;9.97;;;9.00;;
12314;SDS011;23886;46.614;14.276;2023-06-26T09:15:55;11.23;;;8.87;;
12314;SDS011;23886;46.614;14.276;2023-06-26T09:18:22;9.47;;;8.77;;
12314;SDS011;23886;46.614;14.276;2023-06-26T09:20:49;10.00;;;9.20;;
12314;SDS011;23886;46.614;14.276;2023-06-26T09:23:17;9.73;;;8.93;;
12314;SDS011;23886;46.614;14.276;2023-06-26T09:25:43;9.30;;;8.50;;
12314;SDS011;23886;46.614;14.276;2023-06-26T09:28:15;9.37;;;8.57;;
12314;SDS011;23886;46.614;14.276;2023-06-26T09:30:42;8.93;;;8.23;;
12314;SDS011;23886;46.614;14.276;2023-06-26T09:33:14;9.23;;;8.47;;
12314;SDS011;23886;46.614;14.276;2023-06-26T09:35:42;9.90;;;9.00;;
12314;SDS011;23886;46.614;14.276;2023-06-26T09:38:09;10.10;;;9.20;;
12314;SDS011;23886;46.614;14.276;2023-06-26T09:40:37;10.30;;;9.40;;
12314;SDS011;23886;46.614;14.276;2023-06-26T09:43:05;10.20;;;9.37;;
12314;SDS011;23886;46.614;14.276;2023-06-26T09:45:34;10.03;;;9.00;;
12314;SDS011;23886;46.614;14.276;2023-06-26T09:48:02;9.60;;;8.70;;
12314;SDS011;23886;46.614;14.276;2023-06-26T09:50:30;9.70;;;8.90;;
12314;SDS011;23886;46.614;14.276;2023-06-26T09:53:04;10.03;;;9.10;;
12314;SDS011;23886;46.614;14.276;2023-06-26T09:55:34;9.67;;;8.73;;
12314;SDS011;23886;46.614;14.276;2023-06-26T09:58:01;8.87;;;8.17;;
12314;SDS011;23886;46.614;14.276;2023-06-26T10:00:29;9.43;;;8.73;;
12314;SDS011;23886;46.614;14.276;2023-06-26T10:02:58;8.67;;;7.97;;
12314;SDS011;23886;46.614;14.276;2023-06-26T10:05:26;8.88;;;8.10;;
12314;SDS011;23886;46.614;14.276;2023-06-26T10:07:53;9.27;;;8.50;;
12314;SDS011;23886;46.614;14.276;2023-06-26T10:10:21;9.33;;;8.53;;
12314;SDS011;23886;46.614;14.276;2023-06-26T10:12:51;9.05;;;8.35;;
12314;SDS011;23886;46.614;14.276;2023-06-26T10:15:21;8.75;;;8.05;;
12314;SDS011;23886;46.614;14.276;2023-06-26T10:17:51;8.95;;;8.30;;
12314;SDS011;23886;46.614;14.276;2023-06-26T10:20:23;9.90;;;9.07;;
12314;SDS011;23886;46.614;14.276;2023-06-26T10:22:52;9.20;;;8.20;;
12314;SDS011;23886;46.614;14.276;2023-06-26T10:25:24;9.57;;;8.67;;
12314;SDS011;23886;46.614;14.276;2023-06-26T10:27:54;8.75;;;8.05;;
12314;SDS011;23886;46.614;14.276;2023-06-26T10:30:24;8.65;;;7.88;;
12314;SDS011;23886;46.614;14.276;2023-06-26T10:32:55;9.07;;;8.27;;
12314;SDS011;23886;46.614;14.276;2023-06-26T10:35:24;8.60;;;7.90;;
12314;SDS011;23886;46.614;14.276;2023-06-26T10:37:52;8.40;;;7.72;;
12314;SDS011;23886;46.614;14.276;2023-06-26T10:40:28;8.98;;;8.05;;
12314;SDS011;23886;46.614;14.276;2023-06-26T10:43:05;8.55;;;7.80;;
12314;SDS011;23886;46.614;14.276;2023-06-26T10:45:34;9.52;;;8.73;;
12314;SDS011;23886;46.614;14.276;2023-06-26T10:48:02;8.65;;;7.85;;
12314;SDS011;23886;46.614;14.276;2023-06-26T10:50:31;9.55;;;8.68;;
12314;SDS011;23886;46.614;14.276;2023-06-26T10:53:07;8.50;;;7.80;;
12314;SDS011;23886;46.614;14.276;2023-06-26T10:55:42;8.48;;;7.78;;
12314;SDS011;23886;46.614;14.276;2023-06-26T11:03:44;8.60;;;7.93;;
12314;SDS011;23886;46.614;14.276;2023-06-26T11:06:17;7.82;;;7.13;;
12314;SDS011;23886;46.614;14.276;2023-06-26T11:08:45;8.20;;;7.60;;
12314;SDS011;23886;46.614;14.276;2023-06-26T11:11:13;8.40;;;7.70;;
12314;SDS011;23886;46.614;14.276;2023-06-26T11:13:40;8.15;;;7.45;;
12314;SDS011;23886;46.614;14.276;2023-06-26T11:16:08;8.27;;;7.57;;
12314;SDS011;23886;46.614;14.276;2023-06-26T11:18:37;7.70;;;7.10;;
12314;SDS011;23886;46.614;14.276;2023-06-26T11:21:05;8.45;;;7.75;;
12314;SDS011;23886;46.614;14.276;2023-06-26T11:23:35;8.25;;;7.55;;
12314;SDS011;23886;46.614;14.276;2023-06-26T11:26:12;7.55;;;6.80;;
12314;SDS011;23886;46.614;14.276;2023-06-26T11:28:47;7.35;;;6.75;;
12314;SDS011;23886;46.614;14.276;2023-06-26T11:31:26;7.88;;;7.28;;
12314;SDS011;23886;46.614;14.276;2023-06-26T11:33:55;7.80;;;7.20;;
12314;SDS011;23886;46.614;14.276;2023-06-26T11:36:23;8.00;;;7.40;;
12314;SDS011;23886;46.614;14.276;2023-06-26T11:38:56;8.05;;;7.40;;
12314;SDS011;23886;46.614;14.276;2023-06-26T11:41:25;7.18;;;6.63;;
12314;SDS011;23886;46.614;14.276;2023-06-26T11:43:53;7.15;;;6.50;;
12314;SDS011;23886;46.614;14.276;2023-06-26T11:46:21;6.88;;;6.38;;
12314;SDS011;23886;46.614;14.276;2023-06-26T11:48:48;6.97;;;6.47;;
12314;SDS011;23886;46.614;14.276;2023-06-26T11:51:16;6.80;;;6.13;;
12314;SDS011;23886;46.614;14.276;2023-06-26T11:53:43;6.68;;;6.18;;
12314;SDS011;23886;46.614;14.276;2023-06-26T11:56:13;5.70;;;5.25;;
12314;SDS011;23886;46.614;14.276;2023-06-26T11:58:57;6.05;;;5.65;;
12314;SDS011;23886;46.614;14.276;2023-06-26T12:01:26;5.90;;;5.40;;
12314;SDS011;23886;46.614;14.276;2023-06-26T12:03:58;5.80;;;5.40;;
12314;SDS011;23886;46.614;14.276;2023-06-26T12:06:26;5.80;;;5.22;;
12314;SDS011;23886;46.614;14.276;2023-06-26T12:08:54;5.55;;;5.15;;
12314;SDS011;23886;46.614;14.276;2023-06-26T12:11:23;5.97;;;5.47;;
12314;SDS011;23886;46.614;14.276;2023-06-26T12:13:51;6.07;;;5.50;;
12314;SDS011;23886;46.614;14.276;2023-06-26T12:16:19;5.75;;;5.28;;
12314;SDS011;23886;46.614;14.276;2023-06-26T12:18:46;5.10;;;4.80;;
12314;SDS011;23886;46.614;14.276;2023-06-26T12:21:45;5.50;;;5.00;;
12314;SDS011;23886;46.614;14.276;2023-06-26T12:24:18;5.40;;;5.00;;
12314;SDS011;23886;46.614;14.276;2023-06-26T12:26:49;5.53;;;5.13;;
12314;SDS011;23886;46.614;14.276;2023-06-26T12:29:19;4.75;;;4.45;;
12314;SDS011;23886;46.614;14.276;2023-06-26T12:31:48;7.03;;;4.60;;
12314;SDS011;23886;46.614;14.276;2023-06-26T12:34:18;4.97;;;4.65;;
12314;SDS011;23886;46.614;14.276;2023-06-26T12:36:47;5.30;;;4.95;;
12314;SDS011;23886;46.614;14.276;2023-06-26T12:39:16;4.78;;;4.47;;
12314;SDS011;23886;46.614;14.276;2023-06-26T12:41:48;5.03;;;4.63;;
12314;SDS011;23886;46.614;14.276;2023-06-26T12:44:16;4.75;;;4.35;;
12314;SDS011;23886;46.614;14.276;2023-06-26T12:46:45;4.90;;;4.60;;
12314;SDS011;23886;46.614;14.276;2023-06-26T12:49:13;4.85;;;4.55;;
12314;SDS011;23886;46.614;14.276;2023-06-26T12:51:40;5.05;;;4.72;;
12314;SDS011;23886;46.614;14.276;2023-06-26T12:54:08;5.40;;;5.00;;
12314;SDS011;23886;46.614;14.276;2023-06-26T12:56:35;4.97;;;4.57;;
12314;SDS011;23886;46.614;14.276;2023-06-26T12:59:03;5.13;;;4.82;;
12314;SDS011;23886;46.614;14.276;2023-06-26T13:01:31;4.78;;;4.38;;
12314;SDS011;23886;46.614;14.276;2023-06-26T13:03:58;4.65;;;4.25;;
12314;SDS011;23886;46.614;14.276;2023-06-26T13:06:24;4.60;;;4.30;;
12314;SDS011;23886;46.614;14.276;2023-06-26T13:08:51;4.78;;;4.47;;
12314;SDS011;23886;46.614;14.276;2023-06-26T13:11:18;4.90;;;4.50;;
12314;SDS011;23886;46.614;14.276;2023-06-26T13:13:46;5.25;;;4.75;;
12314;SDS011;23886;46.614;14.276;2023-06-26T13:16:15;4.70;;;4.40;;
12314;SDS011;23886;46.614;14.276;2023-06-26T13:18:43;4.60;;;4.30;;
12314;SDS011;23886;46.614;14.276;2023-06-26T13:21:11;4.80;;;4.50;;
12314;SDS011;23886;46.614;14.276;2023-06-26T13:23:38;4.97;;;4.57;;
12314;SDS011;23886;46.614;14.276;2023-06-26T13:26:04;4.80;;;4.45;;
12314;SDS011;23886;46.614;14.276;2023-06-26T13:28:32;4.70;;;4.40;;
12314;SDS011;23886;46.614;14.276;2023-06-26T13:30:59;4.80;;;4.50;;
12314;SDS011;23886;46.614;14.276;2023-06-26T13:33:27;6.13;;;4.90;;
12314;SDS011;23886;46.614;14.276;2023-06-26T13:35:54;5.20;;;4.85;;
12314;SDS011;23886;46.614;14.276;2023-06-26T13:38:21;6.43;;;4.88;;
12314;SDS011;23886;46.614;14.276;2023-06-26T13:40:50;5.20;;;4.38;;
12314;SDS011;23886;46.614;14.276;2023-06-26T13:43:18;4.95;;;4.55;;
12314;SDS011;23886;46.614;14.276;2023-06-26T13:45:46;4.38;;;4.07;;
12314;SDS011;23886;46.614;14.276;2023-06-26T13:48:13;5.00;;;4.65;;
12314;SDS011;23886;46.614;14.276;2023-06-26T13:50:42;4.80;;;4.40;;
12314;SDS011;23886;46.614;14.276;2023-06-26T13:53:09;5.03;;;4.60;;
12314;SDS011;23886;46.614;14.276;2023-06-26T13:55:36;5.03;;;4.72;;
12314;SDS011;23886;46.614;14.276;2023-06-26T13:58:03;4.82;;;4.47;;
12314;SDS011;23886;46.614;14.276;2023-06-26T14:00:31;4.43;;;4.13;;
12314;SDS011;23886;46.614;14.276;2023-06-26T14:02:58;4.60;;;4.20;;
12314;SDS011;23886;46.614;14.276;2023-06-26T14:05:25;5.10;;;4.80;;
12314;SDS011;23886;46.614;14.276;2023-06-26T14:07:54;5.00;;;4.65;;
12314;SDS011;23886;46.614;14.276;2023-06-26T14:10:21;5.55;;;5.15;;
12314;SDS011;23886;46.614;14.276;2023-06-26T14:12:49;4.93;;;4.63;;
12314;SDS011;23886;46.614;14.276;2023-06-26T14:15:16;4.63;;;4.32;;
12314;SDS011;23886;46.614;14.276;2023-06-26T14:17:43;4.47;;;4.18;;
12314;SDS011;23886;46.614;14.276;2023-06-26T14:20:10;4.43;;;4.13;;
12314;SDS011;23886;46.614;14.276;2023-06-26T14:22:39;4.45;;;4.15;;
12314;SDS011;23886;46.614;14.276;2023-06-26T14:25:08;4.55;;;4.25;;
12314;SDS011;23886;46.614;14.276;2023-06-26T14:27:37;4.20;;;3.90;;
12314;SDS011;23886;46.614;14.276;2023-06-26T14:30:04;4.40;;;4.10;;